sensor_id;sensor_type;location;lat;lon;timestamp;pressure;altitude;pressure_sealevel;temperature;humidity
59443;BME280;45247;47.466;19.004;2023-02-22T00:01:14;99883.69;;;6.64;100.00
59443;BME280;45247;47.466;19.004;2023-02-22T00:03:55;99896.78;;;6.64;100.00
59443;BME280;45247;47.466;19.004;2023-02-22T00:06:24;99892.06;;;6.51;100.00
59443;BME280;45247;47.466;19.004;2023-02-22T00:08:52;99894.81;;;6.48;100.00
59443;BME280;45247;47.466;19.004;2023-02-22T00:11:21;99900.44;;;6.39;100.00
59443;BME280;45247;47.466;19.004;2023-02-22T00:13:50;99882.84;;;6.21;100.00
59443;BME280;45247;47.466;19.004;2023-02-22T00:16:20;99910.00;;;6.20;100.00
59443;BME280;45247;47.466;19.004;2023-02-22T00:18:49;99906.81;;;6.12;100.00
59443;BME280;45247;47.466;19.004;2023-02-22T00:21:20;99902.09;;;5.99;100.00
59443;BME280;45247;47.466;19.004;2023-02-22T00:24:06;99909.28;;;5.94;100.00
59443;BME280;45247;47.466;19.004;2023-02-22T00:26:50;99903.72;;;5.80;100.00
59443;BME280;45247;47.466;19.004;2023-02-22T00:29:18;99912.06;;;5.68;100.00
59443;BME280;45247;47.466;19.004;2023-02-22T00:31:46;99911.50;;;5.60;100.00
59443;BME280;45247;47.466;19.004;2023-02-22T00:34:16;99908.50;;;5.47;100.00
59443;BME280;45247;47.466;19.004;2023-02-22T00:36:46;99913.16;;;5.40;100.00
59443;BME280;45247;47.466;19.004;2023-02-22T00:39:15;99915.06;;;5.35;100.00
59443;BME280;45247;47.466;19.004;2023-02-22T00:41:44;99910.81;;;5.33;100.00
59443;BME280;45247;47.466;19.004;2023-02-22T00:44:12;99915.97;;;5.34;100.00
59443;BME280;45247;47.466;19.004;2023-02-22T00:46:40;99913.34;;;5.34;100.00
59443;BME280;45247;47.466;19.004;2023-02-22T00:49:09;99896.13;;;5.28;100.00
59443;BME280;45247;47.466;19.004;2023-02-22T00:51:37;99908.28;;;5.30;100.00
59443;BME280;45247;47.466;19.004;2023-02-22T00:54:07;99898.94;;;5.24;100.00
59443;BME280;45247;47.466;19.004;2023-02-22T00:56:36;99912.75;;;5.27;100.00
59443;BME280;45247;47.466;19.004;2023-02-22T00:59:04;99907.44;;;5.29;100.00
59443;BME280;45247;47.466;19.004;2023-02-22T01:01:33;99893.69;;;5.24;100.00
59443;BME280;45247;47.466;19.004;2023-02-22T01:04:01;99912.50;;;5.34;100.00
59443;BME280;45247;47.466;19.004;2023-02-22T01:06:30;99897.66;;;5.34;100.00
59443;BME280;45247;47.466;19.004;2023-02-22T01:08:58;99907.34;;;5.32;100.00
59443;BME280;45247;47.466;19.004;2023-02-22T01:11:29;99897.72;;;5.33;100.00
59443;BME280;45247;47.466;19.004;2023-02-22T01:13:57;99892.31;;;5.37;100.00
59443;BME280;45247;47.466;19.004;2023-02-22T01:16:26;99902.09;;;5.32;100.00
59443;BME280;45247;47.466;19.004;2023-02-22T01:18:54;99905.56;;;5.33;100.00
59443;BME280;45247;47.466;19.004;2023-02-22T01:21:22;99906.53;;;5.30;100.00
59443;BME280;45247;47.466;19.004;2023-02-22T01:23:51;99888.53;;;5.22;100.00
59443;BME280;45247;47.466;19.004;2023-02-22T01:26:20;99902.28;;;5.27;100.00
59443;BME280;45247;47.466;19.004;2023-02-22T01:28:50;99905.84;;;5.25;100.00
59443;BME280;45247;47.466;19.004;2023-02-22T01:31:18;99884.63;;;5.09;100.00
59443;BME280;45247;47.466;19.004;2023-02-22T01:33:47;99903.34;;;5.22;100.00
59443;BME280;45247;47.466;19.004;2023-02-22T01:36:16;99887.88;;;5.16;100.00
59443;BME280;45247;47.466;19.004;2023-02-22T01:38:45;99894.03;;;5.15;100.00
59443;BME280;45247;47.466;19.004;2023-02-22T01:41:13;99891.53;;;5.12;100.00
59443;BME280;45247;47.466;19.004;2023-02-22T01:43:44;99898.59;;;5.10;100.00
59443;BME280;45247;47.466;19.004;2023-02-22T01:46:22;99896.09;;;5.07;100.00
59443;BME280;45247;47.466;19.004;2023-02-22T01:48:53;99893.69;;;5.00;100.00
59443;BME280;45247;47.466;19.004;2023-02-22T01:51:26;99889.25;;;5.02;100.00
59443;BME280;45247;47.466;19.004;2023-02-22T01:53:59;99890.97;;;5.03;100.00
59443;BME280;45247;47.466;19.004;2023-02-22T01:56:31;99886.47;;;5.07;100.00
59443;BME280;45247;47.466;19.004;2023-02-22T01:59:03;99890.97;;;5.03;100.00
59443;BME280;45247;47.466;19.004;2023-02-22T02:01:35;99886.00;;;4.96;100.00
59443;BME280;45247;47.466;19.004;2023-02-22T02:04:09;99885.25;;;4.92;100.00
